Time;durP1;ratioP1;P1;durP2;ratioP2;P2;SDS_P1;SDS_P2;PMS_P1;PMS_P2;Temp;Humidity;BMP_temperature;BMP_pressure;BME280_temperature;BME280_humidity;BME280_pressure;Samples;Min_cycle;Max_cycle;Signal;HPM_P1;HPM_P2
2023/11/12 00:00:09;;;;;;;8.93;6.25;;;;;;;11.93;68.29;100101.22;4973394;28;101805;-76
2023/11/12 00:02:36;;;;;;;8.10;6.75;;;;;;;12.03;67.79;100102.44;4972456;28;101559;-76
2023/11/12 00:05:02;;;;;;;11.52;6.70;;;;;;;12.04;68.01;100101.50;4972635;28;96790;-76
2023/11/12 00:07:29;;;;;;;9.63;6.38;;;;;;;11.98;67.64;100096.53;4975118;28;96913;-76
2023/11/12 00:09:55;;;;;;;9.38;6.95;;;;;;;11.88;67.96;100101.44;4967808;28;98815;-76
2023/11/12 00:12:22;;;;;;;10.30;6.63;;;;;;;11.76;68.50;100098.56;4972764;28;98782;-76
2023/11/12 00:14:49;;;;;;;11.57;7.05;;;;;;;11.77;69.03;100100.28;4972098;28;96934;-76
2023/11/12 00:17:17;;;;;;;9.50;7.82;;;;;;;12.00;68.21;100097.31;4972014;28;96783;-76
2023/11/12 00:19:43;;;;;;;11.00;7.30;;;;;;;11.90;68.57;100106.66;4971604;28;98491;-76
2023/11/12 00:22:09;;;;;;;8.38;7.00;;;;;;;11.78;68.59;100097.56;4973169;28;99017;-76
2023/11/12 00:24:35;;;;;;;14.27;7.45;;;;;;;11.75;69.78;100096.88;4972951;28;96777;-76
2023/11/12 00:27:01;;;;;;;;;;;;;;;11.92;68.97;100099.50;4973516;28;99950;-76
2023/11/12 00:29:28;;;;;;;8.88;6.90;;;;;;;11.70;69.40;100104.13;4968239;28;98907;-77
2023/11/12 00:31:54;;;;;;;7.93;6.68;;;;;;;11.94;68.63;100103.78;4969851;28;98935;-77
2023/11/12 00:34:22;;;;;;;11.88;7.60;;;;;;;12.02;68.59;100105.16;4972820;28;96850;-77
2023/11/12 00:36:48;;;;;;;9.82;7.25;;;;;;;11.94;68.34;100098.50;4956451;28;96941;-76
2023/11/12 00:39:15;;;;;;;10.10;8.07;;;;;;;11.92;69.02;100107.44;4961253;28;99581;-76
2023/11/12 00:41:41;;;;;;;10.60;7.97;;;;;;;12.06;68.04;100099.66;4965448;28;99227;-77
2023/11/12 00:44:10;;;;;;;10.88;7.72;;;;;;;12.04;68.65;100109.47;4971202;28;96892;-77
2023/11/12 00:46:38;;;;;;;11.27;8.00;;;;;;;12.19;67.73;100107.81;4969583;28;96862;-78
2023/11/12 00:49:10;;;;;;;9.77;8.30;;;;;;;12.13;67.88;100111.66;4967107;28;99453;-78
2023/11/12 00:51:37;;;;;;;14.18;8.43;;;;;;;12.02;68.33;100113.09;4963516;28;97539;-75
2023/11/12 00:54:05;;;;;;;10.30;7.70;;;;;;;12.19;67.76;100111.31;4970016;28;97010;-75
2023/11/12 00:56:32;;;;;;;10.73;8.00;;;;;;;11.93;69.08;100119.75;4971484;28;96801;-76
2023/11/12 00:58:58;;;;;;;10.40;8.18;;;;;;;11.99;68.95;100111.50;4970121;28;98941;-76
2023/11/12 01:01:24;;;;;;;9.57;7.50;;;;;;;12.10;68.45;100119.72;4967964;28;98761;-75
2023/11/12 01:03:51;;;;;;;9.95;8.07;;;;;;;11.97;68.57;100123.94;4970454;28;96796;-75
2023/11/12 01:06:17;;;;;;;11.38;8.45;;;;;;;12.01;68.68;100114.94;4968747;28;96834;-76
2023/11/12 01:08:45;;;;;;;11.77;7.93;;;;;;;11.89;68.93;100116.38;4968868;28;99111;-76
2023/11/12 01:11:12;;;;;;;9.77;7.82;;;;;;;12.04;67.83;100120.06;4968238;28;100162;-77
2023/11/12 01:13:38;;;;;;;11.38;7.93;;;;;;;12.00;68.61;100126.44;4971944;28;96860;-77
2023/11/12 01:16:05;;;;;;;8.90;7.72;;;;;;;11.93;68.62;100119.75;4974556;28;97765;-76
2023/11/12 01:18:32;;;;;;;10.48;7.10;;;;;;;11.86;69.04;100121.00;4980562;28;99158;-76
2023/11/12 01:20:58;;;;;;;8.70;7.15;;;;;;;11.87;69.07;100128.00;4972706;28;99108;-77
2023/11/12 01:23:25;;;;;;;11.80;8.27;;;;;;;12.04;67.88;100130.63;4973467;28;96846;-76
2023/11/12 01:25:54;;;;;;;10.38;8.05;;;;;;;12.05;68.08;100129.72;4974336;28;96920;-77
2023/11/12 01:28:21;;;;;;;11.55;7.53;;;;;;;11.90;68.47;100130.47;4974860;28;99446;-77
2023/11/12 01:30:47;;;;;;;10.38;7.70;;;;;;;11.95;68.09;100131.09;4969023;28;98777;-76
2023/11/12 01:33:13;;;;;;;12.23;7.45;;;;;;;11.72;69.14;100134.03;4973698;28;96789;-77
2023/11/12 01:35:40;;;;;;;11.73;7.40;;;;;;;11.77;69.15;100132.88;4972441;28;96817;-76
2023/11/12 01:38:07;;;;;;;11.15;6.93;;;;;;;12.00;68.33;100134.38;4974021;28;98955;-76
2023/11/12 01:40:38;;;;;;;10.23;7.18;;;;;;;11.75;69.29;100128.63;4973768;28;98652;-76
2023/11/12 01:43:07;;;;;;;8.10;6.22;;;;;;;11.76;68.60;100133.81;4974463;28;98874;-77
2023/11/12 01:45:33;;;;;;;6.30;5.63;;;;;;;11.62;69.38;100128.31;4973515;28;97059;-75
2023/11/12 01:48:00;;;;;;;7.40;6.20;;;;;;;11.89;68.01;100126.13;4972213;28;98868;-75
2023/11/12 01:50:27;;;;;;;7.35;5.80;;;;;;;11.94;67.80;100121.47;4972532;28;99415;-76
2023/11/12 01:52:55;;;;;;;7.63;5.85;;;;;;;11.73;68.10;100120.72;4972781;28;96827;-77
2023/11/12 01:55:25;;;;;;;8.32;5.40;;;;;;;11.81;68.01;100123.03;4973642;28;96819;-78
2023/11/12 01:57:53;;;;;;;8.35;5.75;;;;;;;11.69;68.44;100119.13;4976045;28;98812;-77
2023/11/12 02:00:22;;;;;;;6.82;5.90;;;;;;;11.89;67.45;100118.16;4974333;28;98525;-78
2023/11/12 02:02:49;;;;;;;9.68;5.47;;;;;;;11.65;68.09;100120.25;4974194;28;96853;-76
2023/11/12 02:05:15;;;;;;;8.88;4.78;;;;;;;11.75;67.88;100121.50;4974737;28;96835;-77
2023/11/12 02:07:43;;;;;;;6.70;4.90;;;;;;;11.64;67.71;100118.53;4974553;28;99642;-76
2023/11/12 02:10:15;;;;;;;5.60;4.60;;;;;;;11.67;67.86;100115.75;4977962;28;98843;-74
2023/11/12 02:12:44;;;;;;;6.43;4.75;;;;;;;11.69;67.74;100119.13;4979516;28;96625;-75
2023/11/12 02:15:12;;;;;;;8.23;5.47;;;;;;;11.65;68.60;100107.00;4979349;28;97337;-76
2023/11/12 02:17:41;;;;;;;5.80;4.78;;;;;;;11.72;68.40;100107.56;4979142;28;98869;-78
2023/11/12 02:20:10;;;;;;;6.07;4.95;;;;;;;11.87;67.91;100112.13;4978486;28;100711;-77
2023/11/12 02:22:37;;;;;;;5.80;4.72;;;;;;;11.94;67.51;100103.78;4974360;28;98962;-76
2023/11/12 02:25:06;;;;;;;8.20;5.07;;;;;;;11.95;67.10;100116.06;4976765;28;96937;-77
2023/11/12 02:27:32;;;;;;;6.38;4.80;;;;;;;12.05;66.47;100111.16;4979352;28;101271;-76
2023/11/12 02:29:59;;;;;;;5.70;4.50;;;;;;;11.57;68.16;100117.97;4975138;28;98504;-76
2023/11/12 02:32:30;;;;;;;5.20;3.92;;;;;;;11.97;67.26;100118.66;4976662;28;96644;-76
2023/11/12 02:34:57;;;;;;;4.88;4.13;;;;;;;11.98;66.62;100118.56;4976409;28;97222;-76
2023/11/12 02:37:24;;;;;;;5.32;3.85;;;;;;;11.96;66.22;100111.63;4976716;28;97770;-76
2023/11/12 02:39:50;;;;;;;4.72;4.00;;;;;;;11.71;67.00;100117.28;4969642;28;97573;-75
2023/11/12 02:42:19;;;;;;;6.55;4.93;;;;;;;11.59;68.26;100116.13;4973224;28;96736;-76
2023/11/12 02:44:45;;;;;;;9.73;4.97;;;;;;;11.77;68.28;100117.00;4973979;28;96869;-77
2023/11/12 02:47:11;;;;;;;6.03;4.22;;;;;;;11.67;68.32;100113.09;4972664;28;99098;-77
2023/11/12 02:49:50;;;;;;;5.00;4.05;;;;;;;11.93;67.76;100117.97;4971480;28;99097;-77
2023/11/12 02:52:16;;;;;;;6.03;4.10;;;;;;;11.81;67.98;100110.66;4971290;28;96852;-77
2023/11/12 02:54:42;;;;;;;5.80;4.30;;;;;;;11.83;67.84;100121.13;4974113;28;96789;-76
2023/11/12 02:57:09;;;;;;;5.05;4.43;;;;;;;11.97;66.82;100113.34;4969026;28;98871;-76
2023/11/12 02:59:38;;;;;;;4.80;4.30;;;;;;;11.71;68.08;100111.13;4971848;28;98927;-77
2023/11/12 03:02:05;;;;;;;5.43;4.53;;;;;;;11.87;67.27;100118.28;4970856;28;96709;-77
2023/11/12 03:04:31;;;;;;;5.60;4.68;;;;;;;11.89;67.59;100112.88;4970472;28;98785;-77
2023/11/12 03:06:58;;;;;;;12.13;4.75;;;;;;;12.14;67.07;100115.97;4970176;28;98828;-77
2023/11/12 03:09:25;;;;;;;4.68;4.15;;;;;;;12.14;66.42;100118.63;4972137;28;97785;-77
2023/11/12 03:11:51;;;;;;;5.07;4.20;;;;;;;12.14;66.10;100117.78;4972648;28;96803;-76
2023/11/12 03:14:19;;;;;;;6.68;4.70;;;;;;;11.77;67.56;100118.78;4970531;28;96822;-77
2023/11/12 03:16:48;;;;;;;4.20;3.80;;;;;;;11.83;67.35;100123.78;4971297;28;101840;-76
2023/11/12 03:19:15;;;;;;;5.13;4.40;;;;;;;11.83;67.53;100123.78;4970898;28;99013;-75
2023/11/12 03:21:41;;;;;;;6.00;4.45;;;;;;;11.92;67.45;100120.69;4972447;28;96824;-76
2023/11/12 03:24:09;;;;;;;5.72;4.85;;;;;;;11.69;68.42;100120.94;4968795;28;97136;-76
2023/11/12 03:26:36;;;;;;;8.55;4.53;;;;;;;11.90;67.85;100119.88;4970876;28;101591;-76
2023/11/12 03:29:03;;;;;;;5.40;4.50;;;;;;;11.93;67.56;100123.25;4970095;28;98954;-76
2023/11/12 03:31:30;;;;;;;5.90;4.38;;;;;;;12.12;66.49;100123.16;4972056;28;96735;-77
2023/11/12 03:33:58;;;;;;;5.60;4.43;;;;;;;12.01;67.47;100129.97;4970767;28;96853;-77
2023/11/12 03:36:24;;;;;;;6.70;4.65;;;;;;;12.08;66.67;100126.88;4970476;28;99117;-77
2023/11/12 03:38:49;;;;;;;5.22;4.50;;;;;;;12.07;66.63;100124.34;4971262;28;101123;-76
2023/11/12 03:41:16;;;;;;;;;;;;;;;12.12;66.62;100125.81;4972918;28;97238;-76
2023/11/12 03:43:42;;;;;;;6.40;4.90;;;;;;;12.08;66.35;100123.41;4970617;28;96821;-76
2023/11/12 03:46:09;;;;;;;6.05;4.72;;;;;;;12.00;67.32;100120.28;4964262;28;99141;-77
2023/11/12 03:48:35;;;;;;;7.20;5.13;;;;;;;12.10;66.84;100125.03;4971351;28;99940;-76
2023/11/12 03:51:04;;;;;;;6.22;4.95;;;;;;;12.00;67.02;100128.25;4972171;28;96799;-76
2023/11/12 03:53:30;;;;;;;6.65;5.18;;;;;;;12.13;66.68;100126.69;4971565;28;96780;-75
2023/11/12 03:55:56;;;;;;;9.63;5.15;;;;;;;12.05;67.31;100127.06;4970736;28;100998;-76
2023/11/12 03:58:23;;;;;;;5.78;5.03;;;;;;;12.19;66.21;100129.00;4973815;28;98815;-76
2023/11/12 04:00:49;;;;;;;6.10;4.93;;;;;;;11.86;67.51;100128.94;4969378;28;97397;-76
2023/11/12 04:03:17;;;;;;;5.65;4.88;;;;;;;12.04;66.81;100129.78;4971432;28;97150;-76
2023/11/12 04:05:44;;;;;;;7.93;5.22;;;;;;;11.72;67.97;100128.72;4972335;28;99574;-76
2023/11/12 04:08:12;;;;;;;7.40;4.95;;;;;;;11.82;68.25;100124.72;4969512;28;99341;-76
2023/11/12 04:10:39;;;;;;;6.82;4.53;;;;;;;11.89;67.60;100129.63;4966108;28;96843;-76
2023/11/12 04:13:06;;;;;;;6.32;4.90;;;;;;;11.87;67.85;100131.50;4971783;28;97035;-75
2023/11/12 04:15:32;;;;;;;5.60;4.38;;;;;;;11.74;67.70;100124.25;4972674;28;102255;-76
2023/11/12 04:17:59;;;;;;;5.45;4.03;;;;;;;11.94;66.58;100134.72;4972835;28;99123;-77
2023/11/12 04:20:28;;;;;;;4.18;3.60;;;;;;;11.87;66.65;100126.22;4972174;28;96632;-77
2023/11/12 04:22:55;;;;;;;7.03;4.60;;;;;;;11.94;67.20;100135.56;4972229;28;97010;-76
2023/11/12 04:25:23;;;;;;;5.30;4.40;;;;;;;11.81;67.54;100128.31;4969992;28;98902;-76
2023/11/12 04:27:50;;;;;;;6.38;4.65;;;;;;;11.95;67.06;100137.25;4972621;28;98829;-75
2023/11/12 04:30:16;;;;;;;6.40;4.45;;;;;;;11.95;66.65;100131.97;4971976;28;96849;-76
2023/11/12 04:32:44;;;;;;;6.07;4.32;;;;;;;12.03;66.20;100128.94;4972039;28;96837;-76
2023/11/12 04:35:11;;;;;;;4.70;4.25;;;;;;;12.02;66.23;100135.16;4970201;28;102283;-77
2023/11/12 04:37:37;;;;;;;6.15;4.00;;;;;;;11.87;66.73;100134.16;4975347;28;97713;-77
2023/11/12 04:40:06;;;;;;;5.03;4.53;;;;;;;12.09;66.01;100133.03;4971302;28;96751;-76
2023/11/12 04:42:33;;;;;;;4.10;3.70;;;;;;;11.82;66.43;100145.88;4969974;28;96803;-76
2023/11/12 04:45:00;;;;;;;3.85;3.28;;;;;;;11.36;67.64;100137.53;4969035;28;99052;-76
2023/11/12 04:47:26;;;;;;;3.22;2.92;;;;;;;11.55;67.73;100135.69;4976134;28;98870;-77
2023/11/12 04:49:53;;;;;;;5.30;3.63;;;;;;;11.85;66.51;100133.38;4973659;28;96755;-77
2023/11/12 04:52:20;;;;;;;3.60;3.30;;;;;;;11.93;66.08;100139.16;4975842;28;96975;-76
2023/11/12 04:54:47;;;;;;;4.20;3.42;;;;;;;11.84;66.00;100138.72;4976176;28;99032;-76
2023/11/12 04:57:14;;;;;;;5.03;4.10;;;;;;;11.97;65.54;100139.81;4972759;28;99611;-77
2023/11/12 04:59:41;;;;;;;4.68;3.63;;;;;;;12.00;65.68;100150.28;4974900;28;96766;-76
2023/11/12 05:02:08;;;;;;;6.18;3.83;;;;;;;11.78;66.42;100146.97;4975625;28;96980;-75
2023/11/12 05:04:35;;;;;;;6.72;3.72;;;;;;;12.00;65.78;100144.97;4972753;28;101365;-77
2023/11/12 05:07:01;;;;;;;4.38;3.63;;;;;;;11.95;65.93;100153.13;4973534;28;99112;-77
2023/11/12 05:09:27;;;;;;;4.88;3.80;;;;;;;11.77;66.70;100148.78;4975353;28;97070;-77
2023/11/12 05:11:54;;;;;;;4.32;3.92;;;;;;;11.78;66.50;100145.19;4975894;28;96884;-76
2023/11/12 05:14:20;;;;;;;4.80;4.28;;;;;;;11.76;66.42;100147.06;4974362;28;99242;-76
2023/11/12 05:16:48;;;;;;;5.68;4.05;;;;;;;11.87;66.47;100149.19;4975336;28;99199;-76
2023/11/12 05:19:15;;;;;;;4.97;4.18;;;;;;;11.82;66.11;100154.69;4974746;28;97096;-75
2023/11/12 05:21:44;;;;;;;7.15;4.28;;;;;;;11.95;66.04;100157.56;4973347;28;96955;-77
2023/11/12 05:24:10;;;;;;;5.97;4.30;;;;;;;11.94;66.39;100162.03;4973323;28;98199;-76
2023/11/12 05:26:37;;;;;;;6.63;4.78;;;;;;;11.91;66.48;100163.97;4973504;28;98144;-76
2023/11/12 05:29:03;;;;;;;6.43;4.82;;;;;;;11.50;67.62;100166.81;4974995;28;96809;-76
2023/11/12 05:31:32;;;;;;;6.38;5.10;;;;;;;12.04;66.47;100177.44;4973276;28;97030;-76
2023/11/12 05:34:01;;;;;;;5.13;4.38;;;;;;;12.16;65.61;100180.31;4973856;28;99067;-75
2023/11/12 05:36:27;;;;;;;5.45;4.55;;;;;;;12.07;65.54;100172.88;4973425;28;99274;-76
2023/11/12 05:38:53;;;;;;;7.10;5.22;;;;;;;12.28;65.03;100166.44;4972668;28;98792;-75
2023/11/12 05:41:20;;;;;;;6.60;4.57;;;;;;;12.09;65.40;100164.81;4972407;28;97785;-76
2023/11/12 05:43:47;;;;;;;6.05;4.97;;;;;;;12.01;65.67;100173.19;4974304;28;98226;-76
2023/11/12 05:46:13;;;;;;;5.07;4.47;;;;;;;12.11;65.75;100177.06;4973535;28;99449;-76
2023/11/12 05:48:40;;;;;;;7.40;4.53;;;;;;;11.94;65.88;100182.38;4973769;28;97668;-76
2023/11/12 05:51:08;;;;;;;6.22;4.75;;;;;;;12.13;65.50;100183.16;4974102;28;96779;-75
2023/11/12 05:53:35;;;;;;;5.75;4.70;;;;;;;12.17;64.85;100182.03;4973729;28;99344;-77
2023/11/12 05:56:01;;;;;;;5.90;4.47;;;;;;;11.99;65.30;100177.69;4973282;28;97708;-77
2023/11/12 05:58:28;;;;;;;5.60;5.03;;;;;;;12.04;65.34;100182.75;4973221;28;96882;-76
2023/11/12 06:00:55;;;;;;;9.63;5.15;;;;;;;11.98;65.51;100194.50;4974212;28;96864;-76
2023/11/12 06:03:21;;;;;;;6.00;4.72;;;;;;;11.98;65.48;100190.06;4972255;28;98347;-77
2023/11/12 06:05:48;;;;;;;5.70;4.85;;;;;;;11.71;66.62;100185.25;4970715;28;99190;-77
2023/11/12 06:08:16;;;;;;;5.10;4.45;;;;;;;11.91;66.11;100177.22;4974261;28;96778;-77
2023/11/12 06:10:43;;;;;;;6.22;5.28;;;;;;;12.04;65.73;100188.91;4976300;28;97056;-77
2023/11/12 06:13:09;;;;;;;7.07;5.35;;;;;;;12.02;65.67;100184.59;4972234;28;99454;-76
2023/11/12 06:15:36;;;;;;;5.32;4.72;;;;;;;12.11;65.25;100185.00;4971232;28;98738;-77
2023/11/12 06:18:03;;;;;;;8.00;5.30;;;;;;;12.13;65.65;100190.22;4974835;28;96805;-75
2023/11/12 06:20:29;;;;;;;10.90;5.07;;;;;;;12.09;65.72;100191.31;4974715;28;96833;-75
2023/11/12 06:22:56;;;;;;;6.10;5.22;;;;;;;12.33;64.83;100200.69;4975027;28;98517;-76
2023/11/12 06:25:25;;;;;;;8.45;5.18;;;;;;;12.10;64.70;100204.47;4970714;28;100095;-75
2023/11/12 06:27:51;;;;;;;9.25;5.60;;;;;;;12.28;64.76;100206.19;4974893;28;97251;-76
2023/11/12 06:30:18;;;;;;;6.20;4.60;;;;;;;12.15;64.46;100212.19;4974559;28;97072;-77
2023/11/12 06:32:46;;;;;;;7.05;5.15;;;;;;;12.01;65.61;100214.69;4973617;28;99388;-77
2023/11/12 06:35:12;;;;;;;8.93;4.97;;;;;;;12.00;65.68;100220.91;4975771;28;101647;-77
2023/11/12 06:37:39;;;;;;;6.65;5.03;;;;;;;12.03;65.57;100224.25;4972138;28;96985;-77
2023/11/12 06:40:08;;;;;;;5.90;4.05;;;;;;;11.89;65.86;100234.66;4973773;28;97226;-76
2023/11/12 06:42:35;;;;;;;5.80;4.40;;;;;;;11.93;65.28;100229.16;4972606;28;99568;-77
2023/11/12 06:45:02;;;;;;;5.55;4.60;;;;;;;11.76;65.88;100223.81;4972744;28;98800;-77
2023/11/12 06:47:28;;;;;;;5.20;4.35;;;;;;;11.96;65.66;100220.19;4973293;28;96755;-77
2023/11/12 06:49:55;;;;;;;6.32;4.82;;;;;;;11.73;65.80;100228.38;4973534;28;96825;-77
2023/11/12 06:52:22;;;;;;;7.47;4.80;;;;;;;11.85;65.61;100228.66;4974036;28;99165;-77
2023/11/12 06:54:49;;;;;;;6.72;4.10;;;;;;;11.82;66.05;100225.28;4968904;28;98911;-76
2023/11/12 06:57:15;;;;;;;5.95;4.13;;;;;;;11.79;65.85;100230.75;4973627;28;96809;-76
2023/11/12 06:59:43;;;;;;;5.90;4.32;;;;;;;11.94;65.57;100227.38;4973105;28;99296;-76
2023/11/12 07:02:09;;;;;;;5.93;4.72;;;;;;;11.91;65.67;100228.38;4969534;28;98890;-76
2023/11/12 07:04:36;;;;;;;5.72;4.30;;;;;;;11.95;65.22;100237.00;4971086;28;98917;-77
2023/11/12 07:07:05;;;;;;;5.25;4.40;;;;;;;12.17;64.28;100237.66;4970636;28;96859;-75
2023/11/12 07:09:31;;;;;;;5.18;4.57;;;;;;;12.41;63.56;100234.69;4966401;28;96853;-76
2023/11/12 07:11:57;;;;;;;6.90;4.82;;;;;;;12.08;64.41;100237.28;4971634;28;98954;-75
2023/11/12 07:14:24;;;;;;;4.10;3.75;;;;;;;12.18;63.97;100239.38;4969241;28;99336;-75
2023/11/12 07:16:53;;;;;;;6.93;4.80;;;;;;;12.24;63.77;100240.88;4966786;28;97207;-76
2023/11/12 07:19:20;;;;;;;4.30;3.90;;;;;;;12.42;63.43;100241.72;4971440;28;96936;-77
2023/11/12 07:21:46;;;;;;;5.82;3.95;;;;;;;12.27;63.37;100244.22;4970159;28;101140;-77
2023/11/12 07:24:13;;;;;;;4.60;3.95;;;;;;;12.31;62.99;100240.50;4969659;28;97672;-77
2023/11/12 07:26:40;;;;;;;6.55;4.70;;;;;;;12.38;62.24;100246.34;4971211;28;97007;-77
2023/11/12 07:29:09;;;;;;;4.38;3.97;;;;;;;12.27;62.93;100254.81;4971959;28;96829;-76
2023/11/12 07:31:35;;;;;;;5.43;3.95;;;;;;;12.04;63.56;100255.09;4969232;28;99260;-76
2023/11/12 07:34:03;;;;;;;5.53;4.10;;;;;;;12.11;63.68;100258.31;4970186;28;98862;-77
2023/11/12 07:36:30;;;;;;;4.60;4.07;;;;;;;12.01;64.19;100257.91;4972169;28;96574;-77
2023/11/12 07:38:56;;;;;;;4.30;3.65;;;;;;;12.24;63.62;100256.75;4969415;28;97064;-76
2023/11/12 07:41:23;;;;;;;5.15;4.32;;;;;;;12.42;63.24;100253.19;4970740;28;99656;-77
2023/11/12 07:43:49;;;;;;;4.95;4.10;;;;;;;12.63;61.84;100256.53;4970975;28;99317;-77
2023/11/12 07:46:15;;;;;;;;;;;;;;;12.83;60.83;100253.69;4972106;28;96818;-76
2023/11/12 07:48:41;;;;;;;6.03;4.50;;;;;;;12.76;61.67;100268.22;4969357;28;101130;-77
2023/11/12 07:51:10;;;;;;;4.60;4.10;;;;;;;12.49;61.96;100265.19;4965828;28;99686;-76
2023/11/12 07:53:37;;;;;;;8.07;4.38;;;;;;;12.50;62.02;100261.59;4967199;28;97960;-77
2023/11/12 07:56:06;;;;;;;5.18;4.57;;;;;;;12.56;62.34;100265.72;4970017;28;97736;-77
2023/11/12 07:58:32;;;;;;;5.30;4.65;;;;;;;12.51;62.34;100259.81;4973804;28;97037;-77
2023/11/12 08:00:58;;;;;;;5.97;4.55;;;;;;;12.62;61.71;100266.28;4970249;28;99386;-77
2023/11/12 08:03:25;;;;;;;5.70;4.18;;;;;;;12.67;61.25;100261.59;4965022;28;99057;-76
2023/11/12 08:05:51;;;;;;;6.97;4.38;;;;;;;12.92;61.01;100260.31;4971412;28;96919;-76
2023/11/12 08:08:19;;;;;;;5.53;3.97;;;;;;;12.82;60.76;100259.94;4979008;28;96884;-77
2023/11/12 08:10:45;;;;;;;4.60;4.05;;;;;;;12.83;60.82;100259.00;4974656;28;99021;-76
2023/11/12 08:13:16;;;;;;;4.60;4.10;;;;;;;12.72;61.30;100264.88;4965338;28;98738;-77
2023/11/12 08:15:43;;;;;;;5.47;4.15;;;;;;;12.68;61.57;100265.09;4972429;28;96912;-77
2023/11/12 08:18:10;;;;;;;6.45;4.43;;;;;;;12.65;62.01;100270.56;4961878;28;96812;-77
2023/11/12 08:20:36;;;;;;;5.88;4.65;;;;;;;12.94;61.46;100271.69;4970293;28;99822;-76
2023/11/12 08:23:04;;;;;;;5.88;4.38;;;;;;;12.85;61.36;100269.53;4967586;28;98796;-77
2023/11/12 08:25:32;;;;;;;7.43;4.30;;;;;;;12.99;61.25;100274.97;4975395;28;96785;-77
2023/11/12 08:27:58;;;;;;;5.65;5.03;;;;;;;12.88;61.78;100272.88;4972917;28;97117;-77
2023/11/12 08:30:24;;;;;;;7.00;5.05;;;;;;;12.80;61.82;100274.22;4976136;28;98864;-76
2023/11/12 08:32:51;;;;;;;5.97;4.10;;;;;;;12.83;62.25;100271.41;4976623;28;98924;-77
2023/11/12 08:35:17;;;;;;;6.40;4.70;;;;;;;13.02;61.26;100278.31;4975078;28;96821;-77
2023/11/12 08:37:43;;;;;;;5.72;4.28;;;;;;;13.03;61.56;100277.38;4976883;28;96838;-77
2023/11/12 08:40:11;;;;;;;5.10;4.57;;;;;;;13.24;60.72;100279.88;4975891;28;99610;-77
2023/11/12 08:42:39;;;;;;;6.95;4.50;;;;;;;13.29;60.26;100289.28;4976914;28;99181;-76
2023/11/12 08:45:06;;;;;;;9.15;5.43;;;;;;;13.15;60.93;100281.19;4977663;28;96892;-77
2023/11/12 08:47:33;;;;;;;7.10;5.03;;;;;;;13.37;60.34;100288.88;4975100;28;97626;-77
2023/11/12 08:49:59;;;;;;;6.35;5.20;;;;;;;13.27;60.70;100287.63;4974249;28;99029;-76
2023/11/12 08:52:26;;;;;;;5.65;5.03;;;;;;;13.49;59.71;100288.22;4970141;28;99213;-77
2023/11/12 08:54:53;;;;;;;5.80;4.80;;;;;;;13.42;60.39;100289.47;4971971;28;96680;-77
2023/11/12 08:57:19;;;;;;;6.22;5.18;;;;;;;13.33;59.85;100292.63;4971651;28;96794;-76
2023/11/12 08:59:47;;;;;;;7.57;5.55;;;;;;;13.35;60.12;100290.75;4971863;28;98970;-77
2023/11/12 09:02:13;;;;;;;7.30;5.32;;;;;;;13.41;59.61;100293.94;4971450;28;98961;-77
2023/11/12 09:04:39;;;;;;;7.78;4.82;;;;;;;13.62;59.41;100288.38;4970811;28;96750;-76
2023/11/12 09:07:07;;;;;;;;;;;;;;;13.77;58.51;100293.72;4976939;28;97271;-78
2023/11/12 09:09:33;;;;;;;8.73;4.85;;;;;;;13.48;58.93;100289.13;4978276;28;101685;-77
2023/11/12 09:12:00;;;;;;;4.53;4.13;;;;;;;13.61;57.75;100282.22;4976740;28;99193;-76
2023/11/12 09:14:26;;;;;;;7.25;4.60;;;;;;;13.67;57.60;100288.97;4972608;28;96808;-76
2023/11/12 09:16:54;;;;;;;5.43;4.57;;;;;;;13.48;58.11;100286.47;4975622;28;97934;-76
2023/11/12 09:19:21;;;;;;;8.45;5.63;;;;;;;13.87;57.68;100292.25;4974921;28;98748;-76
2023/11/12 09:21:47;;;;;;;5.68;4.63;;;;;;;13.90;56.59;100294.75;4970087;28;98904;-77
2023/11/12 09:24:14;;;;;;;5.38;4.70;;;;;;;13.92;57.72;100295.50;4976200;28;96897;-77
2023/11/12 09:26:40;;;;;;;6.45;5.20;;;;;;;14.16;57.12;100295.91;4973118;28;96924;-77
2023/11/12 09:29:07;;;;;;;6.60;4.70;;;;;;;13.90;57.01;100302.72;4967682;28;98938;-78
2023/11/12 09:31:33;;;;;;;6.80;4.30;;;;;;;14.19;56.21;100305.50;4972774;28;97841;-77
2023/11/12 09:34:01;;;;;;;3.83;3.33;;;;;;;13.93;54.18;100302.53;4970705;28;96874;-76
2023/11/12 09:36:27;;;;;;;5.25;3.20;;;;;;;14.01;53.31;100309.22;4973164;28;99350;-76
2023/11/12 09:38:54;;;;;;;3.97;3.10;;;;;;;14.12;53.14;100307.66;4969727;28;99112;-78
2023/11/12 09:41:22;;;;;;;5.38;3.92;;;;;;;14.14;53.97;100302.25;4973087;28;99125;-78
2023/11/12 09:43:51;;;;;;;4.38;3.08;;;;;;;14.12;53.97;100299.69;4971690;28;99101;-77
2023/11/12 09:46:20;;;;;;;17.27;2.95;;;;;;;13.83;54.17;100305.78;4973547;28;96909;-77
2023/11/12 09:48:48;;;;;;;4.35;3.47;;;;;;;14.07;54.64;100303.53;4973428;28;99464;-76
2023/11/12 09:51:16;;;;;;;3.47;3.05;;;;;;;13.73;55.37;100305.44;4971476;28;99488;-77
2023/11/12 09:53:46;;;;;;;4.70;3.13;;;;;;;13.98;54.80;100298.78;4971843;28;96796;-76
2023/11/12 09:56:13;;;;;;;2.45;2.00;;;;;;;13.73;56.04;100304.56;4972892;28;97252;-77
2023/11/12 09:58:42;;;;;;;3.08;2.42;;;;;;;13.82;56.28;100307.59;4965647;28;99516;-78
2023/11/12 10:01:09;;;;;;;5.65;2.65;;;;;;;14.07;56.37;100307.06;4969326;28;98998;-77
2023/11/12 10:03:39;;;;;;;5.45;2.75;;;;;;;14.07;56.15;100299.09;4979765;28;96627;-78
2023/11/12 10:06:10;;;;;;;3.25;2.78;;;;;;;13.96;55.73;100307.69;4977410;28;96912;-77
2023/11/12 10:08:38;;;;;;;3.78;2.53;;;;;;;13.85;56.36;100304.75;4973703;28;98919;-77
2023/11/12 10:11:16;;;;;;;2.17;1.98;;;;;;;14.19;55.51;100302.84;4966446;28;98789;-76
2023/11/12 10:13:43;;;;;;;5.43;2.20;;;;;;;13.98;55.95;100309.41;4966344;28;96820;-76
2023/11/12 10:16:25;;;;;;;3.53;2.50;;;;;;;13.95;56.68;100311.28;4970691;28;99139;-77
2023/11/12 10:18:52;;;;;;;3.15;2.65;;;;;;;13.90;56.91;100313.34;4963570;28;99057;-76
2023/11/12 10:21:19;;;;;;;3.70;2.25;;;;;;;13.77;57.19;100314.09;4975953;28;98793;-77
2023/11/12 10:23:47;;;;;;;2.92;2.58;;;;;;;13.78;57.59;100319.34;4968324;28;96765;-76
2023/11/12 10:26:15;;;;;;;2.53;2.33;;;;;;;13.69;58.33;100314.53;4968308;28;96748;-76
2023/11/12 10:28:41;;;;;;;4.38;2.60;;;;;;;13.57;59.61;100310.75;4969851;28;97802;-78
2023/11/12 10:31:11;;;;;;;3.40;2.63;;;;;;;13.70;59.35;100310.94;4972346;28;98804;-77
2023/11/12 10:34:03;;;;;;;2.95;2.60;;;;;;;13.68;60.18;100317.25;4978771;28;97723;-78
2023/11/12 10:36:29;;;;;;;3.60;2.85;;;;;;;13.84;59.66;100315.47;4963518;28;96768;-77
2023/11/12 10:39:03;;;;;;;3.53;2.65;;;;;;;13.77;59.74;100317.63;4972924;28;98788;-76
2023/11/12 10:41:34;;;;;;;3.22;2.70;;;;;;;13.71;60.17;100312.66;4972078;28;98871;-77
2023/11/12 10:44:03;;;;;;;4.57;2.92;;;;;;;14.20;59.02;100316.03;4973831;28;97073;-77
2023/11/12 10:46:30;;;;;;;3.55;3.25;;;;;;;14.49;58.21;100318.88;4968509;28;96838;-77
2023/11/12 10:48:57;;;;;;;4.60;3.55;;;;;;;14.15;59.67;100327.88;4972827;28;99819;-77
2023/11/12 10:51:25;;;;;;;5.97;4.07;;;;;;;14.28;59.18;100318.28;4965404;28;98558;-76
2023/11/12 10:53:57;;;;;;;5.10;3.42;;;;;;;14.16;60.31;100319.84;4970878;28;97497;-77
2023/11/12 10:56:25;;;;;;;4.22;3.47;;;;;;;14.35;59.98;100322.28;4971324;28;98505;-76
2023/11/12 10:58:53;;;;;;;6.13;4.30;;;;;;;14.00;61.30;100323.44;4965983;28;97643;-76
2023/11/12 11:01:21;;;;;;;4.80;4.13;;;;;;;14.28;59.96;100313.81;4970506;28;98906;-76
2023/11/12 11:03:48;;;;;;;5.47;4.32;;;;;;;14.04;60.87;100320.53;4967579;28;96783;-76
2023/11/12 11:06:16;;;;;;;6.25;4.30;;;;;;;13.99;60.77;100317.25;4971080;28;97431;-77
2023/11/12 11:08:43;;;;;;;6.63;5.43;;;;;;;13.81;62.12;100324.47;4971301;28;98908;-77
2023/11/12 11:11:10;;;;;;;5.78;4.78;;;;;;;14.00;61.90;100316.31;4972605;28;98762;-77
2023/11/12 11:13:38;;;;;;;5.15;4.40;;;;;;;13.92;62.30;100315.88;4966397;28;96871;-77
2023/11/12 11:16:05;;;;;;;8.13;4.85;;;;;;;13.84;62.55;100319.00;4976852;28;96818;-77
2023/11/12 11:18:51;;;;;;;6.80;4.70;;;;;;;13.87;62.35;100317.94;4979786;28;101475;-77
2023/11/12 11:21:18;;;;;;;6.10;5.10;;;;;;;13.90;62.15;100326.63;4971633;28;98204;-77
2023/11/12 11:23:47;;;;;;;6.30;5.40;;;;;;;13.63;62.99;100319.31;4969177;28;98990;-76